Time;durP1;ratioP1;P1;durP2;ratioP2;P2;SDS_P1;SDS_P2;PMS_P1;PMS_P2;Temp;Humidity;BMP_temperature;BMP_pressure;BME280_temperature;BME280_humidity;BME280_pressure;Samples;Min_cycle;Max_cycle;Signal;HPM_P1;HPM_P2
2021/08/01 00:01:01;;;;;;;7.38;6.10;;;15.00;99.90;;;;;;4841458;29;20037;-71
2021/08/01 00:03:27;;;;;;;6.47;5.70;;;15.00;99.90;;;;;;4841456;29;20107;-71
2021/08/01 00:05:52;;;;;;;6.93;5.95;;;15.00;99.90;;;;;;4841382;29;20026;-71
2021/08/01 00:08:18;;;;;;;10.45;6.47;;;14.90;99.90;;;;;;4841173;29;20045;-71
2021/08/01 00:10:44;;;;;;;6.00;5.13;;;14.90;99.90;;;;;;4841485;29;20026;-71
2021/08/01 00:13:10;;;;;;;7.05;5.28;;;15.00;99.90;;;;;;4843296;29;20158;-71
2021/08/01 00:15:35;;;;;;;6.70;5.13;;;15.00;99.90;;;;;;4847566;29;20034;-71
2021/08/01 00:18:02;;;;;;;8.05;6.00;;;15.00;99.90;;;;;;4847409;29;20398;-70
2021/08/01 00:20:28;;;;;;;6.80;5.80;;;15.00;99.90;;;;;;4847147;29;20061;-70
2021/08/01 00:22:54;;;;;;;6.57;5.20;;;15.00;99.90;;;;;;4847211;29;20430;-70
2021/08/01 00:25:20;;;;;;;7.68;5.55;;;15.00;99.90;;;;;;4847036;29;20030;-70
2021/08/01 00:27:46;;;;;;;11.90;5.85;;;15.00;99.90;;;;;;4847383;29;20041;-70
2021/08/01 00:30:12;;;;;;;8.13;5.80;;;14.90;99.90;;;;;;4846983;29;20026;-71
2021/08/01 00:32:39;;;;;;;6.95;5.53;;;14.90;99.90;;;;;;4847732;29;20038;-70
2021/08/01 00:35:06;;;;;;;7.32;5.65;;;14.80;99.90;;;;;;4847233;29;20078;-70
2021/08/01 00:37:32;;;;;;;6.85;5.70;;;14.70;99.90;;;;;;4847110;29;20029;-71
2021/08/01 00:39:59;;;;;;;6.95;5.43;;;14.60;99.90;;;;;;4847089;29;20046;-71
2021/08/01 00:42:25;;;;;;;8.85;5.55;;;14.60;99.90;;;;;;4846955;29;20065;-71
2021/08/01 00:44:50;;;;;;;6.28;5.35;;;14.60;99.90;;;;;;4847002;29;20054;-70
2021/08/01 00:47:17;;;;;;;6.22;4.82;;;14.60;99.90;;;;;;4846887;29;20131;-71
2021/08/01 00:49:43;;;;;;;6.10;4.82;;;14.60;99.90;;;;;;4846845;29;20061;-71
2021/08/01 00:52:10;;;;;;;5.28;4.78;;;14.60;99.90;;;;;;4846897;29;20044;-71
2021/08/01 00:54:36;;;;;;;8.40;5.10;;;14.60;99.90;;;;;;4847143;29;20030;-70
2021/08/01 00:57:02;;;;;;;5.43;4.50;;;14.60;99.90;;;;;;4847025;29;20074;-71
2021/08/01 00:59:33;;;;;;;6.55;5.30;;;14.60;99.90;;;;;;4846879;29;20041;-71
2021/08/01 01:02:06;;;;;;;7.38;4.82;;;14.60;99.90;;;;;;4847312;29;20413;-71
2021/08/01 01:04:55;;;;;;;6.40;5.25;;;14.60;99.90;;;;;;4846932;29;20038;-71
2021/08/01 01:07:39;;;;;;;7.05;5.65;;;14.50;99.90;;;;;;4846685;29;20293;-71
2021/08/01 01:10:24;;;;;;;6.03;4.90;;;14.40;99.90;;;;;;4846738;29;20022;-71
2021/08/01 01:13:11;;;;;;;7.93;5.43;;;14.40;99.90;;;;;;4846897;29;20034;-71
2021/08/01 01:15:44;;;;;;;7.18;5.13;;;14.40;99.90;;;;;;4847187;29;20090;-71
2021/08/01 01:47:15;;;;;;;6.40;5.57;;;14.00;99.90;;;;;;4843173;29;20057;-71
2021/08/01 01:49:42;;;;;;;8.57;5.68;;;13.90;99.90;;;;;;4843272;29;20050;-71
2021/08/01 01:52:14;;;;;;;8.10;5.90;;;13.70;99.90;;;;;;4843358;29;20102;-71
2021/08/01 01:54:42;;;;;;;6.47;5.32;;;13.60;99.90;;;;;;4843712;29;20040;-71
2021/08/01 01:57:08;;;;;;;9.00;5.57;;;13.60;99.90;;;;;;4843448;29;20098;-71
2021/08/01 01:59:34;;;;;;;8.40;6.00;;;13.70;99.90;;;;;;4843198;29;20491;-71
2021/08/01 02:02:00;;;;;;;7.82;6.10;;;13.70;99.90;;;;;;4843408;29;20045;-71
2021/08/01 02:04:25;;;;;;;6.80;5.95;;;13.60;99.90;;;;;;4843438;29;20412;-71
2021/08/01 02:06:51;;;;;;;9.50;5.38;;;13.50;99.90;;;;;;4843346;29;20364;-71
2021/08/01 02:09:43;;;;;;;6.53;5.68;;;13.50;99.90;;;;;;4843237;29;20041;-71
2021/08/01 02:12:37;;;;;;;8.07;6.15;;;13.50;99.90;;;;;;4840033;29;20034;-71
2021/08/01 02:15:07;;;;;;;13.95;6.78;;;13.40;99.90;;;;;;4834738;29;20034;-71
2021/08/01 02:18:05;;;;;;;10.88;7.40;;;13.40;99.90;;;;;;4843289;29;20109;-71
2021/08/01 02:20:43;;;;;;;20.52;7.97;;;13.40;99.90;;;;;;4842953;29;20499;-71
2021/08/01 02:23:12;;;;;;;28.25;9.32;;;13.40;99.90;;;;;;4842814;29;20041;-71
2021/08/01 02:25:39;;;;;;;18.35;9.05;;;13.50;99.90;;;;;;4842863;29;20465;-71
2021/08/01 02:28:07;;;;;;;14.18;9.13;;;13.50;99.90;;;;;;4842872;29;20042;-71
2021/08/01 02:30:34;;;;;;;14.35;8.52;;;13.50;99.90;;;;;;4842763;29;20022;-71
2021/08/01 02:33:00;;;;;;;17.52;9.32;;;13.50;99.90;;;;;;4842689;29;20398;-71
2021/08/01 02:35:27;;;;;;;35.80;11.48;;;13.60;99.90;;;;;;4842404;29;20026;-71
2021/08/01 02:37:55;;;;;;;39.30;13.25;;;13.70;99.90;;;;;;4842803;29;20026;-71
2021/08/01 02:40:21;;;;;;;62.20;12.85;;;13.70;99.90;;;;;;4842680;29;20033;-71
2021/08/01 02:42:50;;;;;;;50.97;10.20;;;13.70;99.90;;;;;;4842933;29;20383;-71
2021/08/01 02:45:17;;;;;;;38.40;7.18;;;13.70;99.90;;;;;;4842335;29;20038;-71
2021/08/01 02:47:43;;;;;;;21.45;6.97;;;13.70;99.90;;;;;;4842240;29;20042;-70
2021/08/01 02:50:11;;;;;;;13.20;6.25;;;13.70;99.90;;;;;;4842232;29;20034;-71
2021/08/01 02:53:06;;;;;;;19.90;6.13;;;13.70;99.90;;;;;;4842786;29;20034;-71
2021/08/01 02:55:33;;;;;;;5.85;5.03;;;13.70;99.90;;;;;;4841827;29;20391;-71
2021/08/01 02:58:01;;;;;;;11.82;5.40;;;13.70;99.90;;;;;;4842261;29;20467;-70
2021/08/01 03:00:29;;;;;;;5.88;5.28;;;13.70;99.90;;;;;;4856177;29;20426;-71
2021/08/01 03:02:55;;;;;;;8.05;5.78;;;13.70;99.90;;;;;;4842182;29;20030;-71
2021/08/01 03:05:21;;;;;;;5.95;4.85;;;13.80;99.90;;;;;;4841906;29;20037;-71
2021/08/01 03:07:48;;;;;;;7.68;5.30;;;13.80;99.90;;;;;;4842422;29;20049;-71
2021/08/01 03:10:15;;;;;;;6.13;5.03;;;13.80;99.90;;;;;;4842147;29;20037;-71
2021/08/01 03:12:45;;;;;;;5.80;5.20;;;13.90;99.90;;;;;;4842108;29;20038;-71
2021/08/01 03:15:11;;;;;;;;;;;13.90;99.90;;;;;;4842187;29;20097;-71
2021/08/01 03:17:37;;;;;;;5.80;4.72;;;14.00;99.90;;;;;;4842255;29;19991;-71
2021/08/01 03:20:07;;;;;;;5.15;4.65;;;14.00;99.90;;;;;;4841753;29;20356;-71
2021/08/01 03:22:33;;;;;;;5.00;4.40;;;14.10;99.90;;;;;;4841885;29;20558;-71
2021/08/01 03:24:58;;;;;;;5.45;4.75;;;14.10;99.90;;;;;;4841740;29;20129;-71
2021/08/01 03:27:25;;;;;;;33.58;6.18;;;14.10;99.90;;;;;;4841836;29;20052;-71
2021/08/01 03:29:51;;;;;;;5.53;4.95;;;14.20;99.90;;;;;;4841723;29;20030;-71
2021/08/01 03:32:19;;;;;;;5.82;4.95;;;14.20;99.90;;;;;;4841943;29;20394;-71
2021/08/01 03:34:45;;;;;;;5.47;4.45;;;14.30;99.90;;;;;;4841649;29;20542;-71
2021/08/01 03:37:10;;;;;;;6.07;4.45;;;14.30;99.90;;;;;;4841812;29;20033;-71
2021/08/01 03:39:36;;;;;;;5.82;4.38;;;14.30;99.90;;;;;;4841630;29;20378;-71
2021/08/01 03:42:03;;;;;;;5.20;4.43;;;14.30;99.90;;;;;;4841682;29;20030;-71
2021/08/01 03:44:29;;;;;;;4.28;3.88;;;14.40;99.90;;;;;;4841873;29;20112;-71
2021/08/01 03:46:55;;;;;;;6.80;4.18;;;14.40;99.90;;;;;;4841765;29;20586;-71
2021/08/01 03:49:21;;;;;;;4.45;4.05;;;14.50;99.90;;;;;;4840636;29;20056;-71
2021/08/01 03:51:46;;;;;;;4.80;4.40;;;14.50;99.90;;;;;;4841669;29;20037;-71
2021/08/01 03:54:12;;;;;;;5.90;5.20;;;14.50;99.90;;;;;;4841595;29;20030;-71
2021/08/01 03:56:45;;;;;;;6.25;5.45;;;14.60;99.90;;;;;;4841509;29;20108;-71
2021/08/01 03:59:12;;;;;;;6.28;5.53;;;14.70;99.90;;;;;;4841240;29;20048;-71
2021/08/01 04:01:38;;;;;;;6.50;5.60;;;14.80;99.90;;;;;;4841398;29;20050;-71
2021/08/01 04:04:04;;;;;;;6.07;5.20;;;15.00;99.90;;;;;;4841457;29;20034;-71
2021/08/01 04:06:30;;;;;;;6.05;5.20;;;15.30;99.90;;;;;;4841307;29;20030;-71
2021/08/01 04:08:56;;;;;;;5.25;4.63;;;15.40;99.90;;;;;;4841321;29;20515;-71
2021/08/01 04:11:22;;;;;;;5.20;4.70;;;15.60;99.90;;;;;;4841501;29;20444;-71
2021/08/01 04:13:48;;;;;;;7.68;5.47;;;15.80;99.90;;;;;;4841578;29;20030;-71
2021/08/01 04:16:14;;;;;;;5.47;4.28;;;16.00;99.90;;;;;;4841378;29;20030;-71
2021/08/01 04:18:40;;;;;;;6.28;4.72;;;16.40;99.90;;;;;;4841209;29;20505;-71
2021/08/01 04:21:09;;;;;;;5.15;3.90;;;16.60;99.90;;;;;;4841109;29;20104;-71
2021/08/01 04:23:36;;;;;;;4.90;4.05;;;16.80;99.90;;;;;;4841711;29;20386;-71
2021/08/01 04:26:03;;;;;;;4.32;3.78;;;16.80;99.90;;;;;;4841390;29;20034;-71
2021/08/01 04:28:29;;;;;;;4.50;4.10;;;16.60;99.90;;;;;;4840900;29;20533;-71
2021/08/01 04:30:55;;;;;;;4.57;4.13;;;16.50;99.90;;;;;;4841276;29;20030;-71
2021/08/01 04:33:21;;;;;;;4.60;4.20;;;16.30;99.90;;;;;;4841009;29;20069;-71
2021/08/01 04:35:46;;;;;;;5.10;4.60;;;16.20;99.90;;;;;;4841040;29;20034;-71
2021/08/01 04:38:12;;;;;;;5.20;4.60;;;16.10;99.90;;;;;;4841263;29;20057;-71
2021/08/01 04:40:38;;;;;;;6.25;4.47;;;16.00;99.90;;;;;;4840924;29;20037;-71
2021/08/01 04:43:04;;;;;;;5.28;4.68;;;15.90;99.90;;;;;;4841421;29;20037;-71
2021/08/01 04:45:30;;;;;;;5.38;4.60;;;15.90;99.90;;;;;;4841074;29;20363;-71
2021/08/01 04:47:55;;;;;;;7.85;5.18;;;15.80;99.90;;;;;;4840695;29;20498;-70
2021/08/01 04:50:21;;;;;;;6.70;5.15;;;15.90;99.90;;;;;;4840749;29;20038;-71
2021/08/01 04:52:52;;;;;;;5.97;4.93;;;16.10;99.90;;;;;;4840996;29;20030;-71
2021/08/01 04:55:21;;;;;;;6.65;4.85;;;16.50;99.90;;;;;;4840762;29;20033;-71
2021/08/01 04:57:47;;;;;;;5.07;4.28;;;17.00;99.90;;;;;;4840849;29;20037;-71
2021/08/01 05:00:13;;;;;;;4.88;4.32;;;17.50;99.90;;;;;;4843174;29;20026;-71
2021/08/01 05:02:39;;;;;;;5.18;4.68;;;17.90;99.90;;;;;;4844334;29;20130;-71
2021/08/01 05:05:06;;;;;;;4.35;3.95;;;18.30;99.90;;;;;;4844461;29;20124;-71
2021/08/01 05:07:32;;;;;;;5.30;4.80;;;18.70;99.90;;;;;;4844540;29;20046;-71
2021/08/01 05:09:58;;;;;;;4.90;4.10;;;19.00;99.90;;;;;;4844672;29;20542;-71
2021/08/01 05:12:24;;;;;;;5.70;3.80;;;19.40;99.90;;;;;;4844376;29;20038;-71
2021/08/01 05:14:50;;;;;;;5.15;4.25;;;19.70;99.90;;;;;;4844200;29;20037;-71
2021/08/01 05:17:16;;;;;;;5.30;4.00;;;20.00;99.90;;;;;;4858416;29;20056;-71
2021/08/01 05:19:42;;;;;;;4.78;3.40;;;20.40;99.90;;;;;;4844291;29;20034;-71
2021/08/01 05:22:09;;;;;;;5.20;3.60;;;20.70;99.90;;;;;;4844168;29;20030;-71
2021/08/01 05:24:42;;;;;;;6.05;3.53;;;20.60;99.90;;;;;;4843957;29;20390;-71
2021/08/01 05:27:08;;;;;;;5.90;3.25;;;20.40;99.90;;;;;;4844110;29;20033;-71
2021/08/01 05:29:34;;;;;;;3.75;2.85;;;20.30;99.90;;;;;;4844054;29;20086;-71
2021/08/01 05:32:00;;;;;;;3.15;2.70;;;20.10;99.90;;;;;;4843895;29;20486;-71
2021/08/01 05:34:26;;;;;;;4.30;2.75;;;19.90;99.90;;;;;;4843525;29;20048;-71
2021/08/01 05:36:52;;;;;;;3.10;2.80;;;19.70;99.90;;;;;;4843858;29;20034;-71
2021/08/01 05:39:17;;;;;;;4.32;2.67;;;19.60;99.90;;;;;;4843686;29;20053;-71
2021/08/01 05:41:43;;;;;;;4.30;2.95;;;19.60;99.90;;;;;;4843740;29;20414;-71
2021/08/01 05:44:09;;;;;;;3.00;2.50;;;19.70;99.90;;;;;;4843464;29;20041;-71
2021/08/01 05:46:34;;;;;;;3.47;2.92;;;19.80;99.90;;;;;;4843437;29;20086;-71
2021/08/01 05:49:00;;;;;;;3.88;2.50;;;20.10;99.90;;;;;;4843332;29;20529;-71
2021/08/01 05:51:26;;;;;;;3.50;2.72;;;20.20;99.90;;;;;;4843564;29;20026;-71
2021/08/01 05:53:52;;;;;;;2.92;2.28;;;20.20;99.90;;;;;;4843771;29;20034;-71
2021/08/01 05:56:17;;;;;;;2.97;2.53;;;20.10;99.90;;;;;;4843155;29;20036;-71
2021/08/01 05:58:43;;;;;;;3.15;2.50;;;20.00;99.90;;;;;;4843364;29;20033;-71
2021/08/01 06:01:15;;;;;;;4.10;2.40;;;20.00;99.90;;;;;;4843235;29;20054;-71
2021/08/01 06:03:42;;;;;;;4.25;2.38;;;20.00;99.90;;;;;;4843652;29;20428;-71
2021/08/01 06:06:16;;;;;;;6.93;2.55;;;20.20;99.90;;;;;;4843454;29;20112;-71
2021/08/01 06:08:46;;;;;;;2.13;1.83;;;20.40;99.90;;;;;;4843221;29;20399;-71
2021/08/01 06:11:13;;;;;;;2.63;1.63;;;20.60;99.90;;;;;;4842337;29;20026;-71
2021/08/01 06:13:39;;;;;;;2.28;1.63;;;20.50;99.80;;;;;;4843163;29;20034;-71
2021/08/01 06:16:10;;;;;;;3.15;1.80;;;20.40;99.40;;;;;;4843051;29;20064;-71
2021/08/01 06:18:36;;;;;;;2.90;1.73;;;20.40;99.50;;;;;;4843011;29;20490;-71
2021/08/01 06:21:03;;;;;;;4.22;1.95;;;20.40;99.40;;;;;;4843249;29;20057;-71
2021/08/01 06:23:29;;;;;;;2.65;1.55;;;20.30;99.60;;;;;;4842715;29;20037;-71
2021/08/01 06:25:54;;;;;;;6.22;1.60;;;20.40;99.30;;;;;;4842845;29;20034;-71
2021/08/01 06:28:20;;;;;;;1.92;1.60;;;20.50;98.80;;;;;;4842896;29;20067;-71
2021/08/01 06:30:46;;;;;;;1.75;1.30;;;20.60;97.90;;;;;;4842781;29;20470;-71
2021/08/01 06:33:11;;;;;;;4.68;1.63;;;20.60;96.90;;;;;;4842659;29;20113;-71
2021/08/01 06:35:37;;;;;;;3.55;1.70;;;20.50;96.50;;;;;;4843002;29;20086;-71
2021/08/01 06:38:03;;;;;;;2.20;1.27;;;20.40;96.30;;;;;;4842751;29;20390;-71
2021/08/01 06:40:28;;;;;;;1.75;1.30;;;20.40;96.70;;;;;;4842423;29;20094;-71
2021/08/01 06:42:54;;;;;;;1.80;1.40;;;20.40;96.50;;;;;;4842623;29;20073;-71
2021/08/01 06:45:20;;;;;;;2.38;1.67;;;20.40;96.20;;;;;;4842372;29;20141;-71
2021/08/01 06:47:45;;;;;;;4.15;1.63;;;20.20;96.40;;;;;;4842525;29;20077;-71
2021/08/01 06:50:11;;;;;;;1.98;1.30;;;20.20;97.10;;;;;;4842500;29;20075;-71
2021/08/01 06:52:37;;;;;;;2.95;1.88;;;20.40;97.90;;;;;;4842380;29;20033;-71
2021/08/01 06:55:04;;;;;;;2.88;1.65;;;20.60;97.60;;;;;;4856486;29;20034;-71
2021/08/01 06:57:29;;;;;;;1.77;1.63;;;20.70;97.50;;;;;;4842199;29;20504;-71
2021/08/01 06:59:55;;;;;;;2.95;1.92;;;20.80;97.30;;;;;;4842547;29;20033;-71
2021/08/01 07:02:21;;;;;;;2.65;1.70;;;21.00;97.70;;;;;;4842407;29;20560;-71
2021/08/01 07:04:47;;;;;;;2.55;2.00;;;21.20;97.10;;;;;;4842376;29;20030;-70
2021/08/01 07:07:12;;;;;;;2.85;1.88;;;21.30;97.10;;;;;;4842339;29;20042;-70
2021/08/01 07:09:41;;;;;;;2.50;1.80;;;21.40;96.90;;;;;;4842064;29;20034;-70
2021/08/01 07:12:09;;;;;;;2.97;1.98;;;21.30;96.20;;;;;;4842075;29;20440;-69
2021/08/01 07:14:35;;;;;;;2.28;1.55;;;21.30;96.20;;;;;;4841831;29;20037;-71
2021/08/01 07:17:01;;;;;;;2.50;1.70;;;21.30;96.20;;;;;;4841974;29;20113;-70
2021/08/01 07:19:27;;;;;;;1.90;1.40;;;21.20;96.00;;;;;;4841827;29;20121;-71
2021/08/01 07:21:53;;;;;;;2.35;1.50;;;21.20;96.30;;;;;;4841545;29;20034;-70
2021/08/01 07:24:19;;;;;;;1.65;1.27;;;21.20;96.10;;;;;;4841098;29;20030;-69
2021/08/01 07:26:48;;;;;;;2.47;1.30;;;21.20;95.60;;;;;;4841721;29;20040;-69
2021/08/01 07:29:14;;;;;;;2.05;1.60;;;21.20;95.70;;;;;;4841798;29;20037;-70
2021/08/01 07:31:40;;;;;;;1.88;1.58;;;21.00;95.70;;;;;;4841662;29;20483;-71
2021/08/01 07:34:05;;;;;;;1.52;1.40;;;21.00;95.70;;;;;;4841767;29;20082;-70
2021/08/01 07:36:31;;;;;;;1.52;1.40;;;21.00;95.70;;;;;;4841702;29;20025;-69
2021/08/01 07:38:57;;;;;;;2.83;1.60;;;21.00;96.20;;;;;;4841676;29;20564;-70
2021/08/01 07:41:22;;;;;;;2.15;1.50;;;21.00;96.00;;;;;;4841527;29;20026;-69
2021/08/01 07:43:51;;;;;;;1.70;1.50;;;21.00;95.60;;;;;;4841875;29;20026;-71
2021/08/01 07:46:17;;;;;;;2.22;1.50;;;21.10;96.60;;;;;;4841417;29;20252;-69
2021/08/01 07:48:43;;;;;;;2.22;1.50;;;21.30;96.60;;;;;;4841261;29;20085;-69
2021/08/01 07:51:09;;;;;;;1.98;1.42;;;21.50;96.00;;;;;;4841745;29;20054;-71
2021/08/01 07:53:34;;;;;;;3.28;1.55;;;21.70;95.80;;;;;;4841463;29;20369;-69
2021/08/01 07:56:00;;;;;;;3.10;1.60;;;21.80;95.90;;;;;;4841400;29;20026;-70
2021/08/01 07:58:26;;;;;;;1.67;1.30;;;21.80;95.40;;;;;;4841308;29;20494;-70
2021/08/01 08:00:52;;;;;;;2.88;1.25;;;21.70;95.30;;;;;;4841339;29;20117;-69
2021/08/01 08:03:17;;;;;;;2.70;1.35;;;21.60;94.50;;;;;;4841576;29;20103;-69
2021/08/01 08:05:43;;;;;;;1.85;1.42;;;21.60;95.00;;;;;;4841659;29;20041;-69
2021/08/01 08:08:09;;;;;;;1.40;1.30;;;21.60;94.90;;;;;;4841539;29;20439;-69
2021/08/01 08:10:36;;;;;;;4.93;1.60;;;21.60;94.30;;;;;;4841122;29;20536;-69
2021/08/01 08:13:02;;;;;;;4.75;1.45;;;21.70;94.70;;;;;;4841498;29;20087;-69
2021/08/01 08:15:28;;;;;;;3.28;1.30;;;21.70;94.70;;;;;;4841354;29;20022;-69
2021/08/01 08:17:54;;;;;;;1.40;1.17;;;21.70;94.30;;;;;;4841786;29;20041;-69
2021/08/01 08:20:19;;;;;;;1.20;1.10;;;21.60;95.00;;;;;;4840878;29;20032;-71
2021/08/01 08:22:45;;;;;;;3.03;1.20;;;21.60;95.40;;;;;;4841479;29;20124;-71
2021/08/01 08:25:11;;;;;;;2.58;1.38;;;21.70;95.10;;;;;;4841318;29;20041;-72
2021/08/01 08:27:37;;;;;;;2.05;1.00;;;21.90;94.70;;;;;;4841228;29;20476;-71
2021/08/01 08:30:05;;;;;;;2.53;1.15;;;21.80;93.70;;;;;;4841071;29;20114;-71
2021/08/01 08:32:33;;;;;;;3.08;1.27;;;21.70;94.30;;;;;;4841289;29;20026;-71
2021/08/01 08:34:59;;;;;;;1.63;0.80;;;21.70;94.70;;;;;;4843289;29;20109;-71
2021/08/01 08:37:25;;;;;;;1.75;1.00;;;21.80;94.30;;;;;;4844903;29;20117;-71
2021/08/01 08:39:51;;;;;;;0.80;0.80;;;21.80;94.00;;;;;;4844991;29;20553;-71
2021/08/01 08:42:17;;;;;;;3.13;0.80;;;21.90;93.50;;;;;;4844768;29;20057;-71
2021/08/01 08:44:43;;;;;;;2.58;1.00;;;21.80;92.90;;;;;;4845101;29;20034;-71
2021/08/01 08:47:09;;;;;;;1.88;1.00;;;21.60;93.80;;;;;;4844419;29;20068;-71
2021/08/01 08:49:37;;;;;;;0.63;0.55;;;21.60;93.30;;;;;;4844857;29;20058;-71
2021/08/01 08:52:06;;;;;;;1.02;0.70;;;21.60;92.90;;;;;;4844447;29;20026;-71
2021/08/01 08:54:48;;;;;;;1.60;0.80;;;21.70;91.80;;;;;;4844396;29;20479;-72
2021/08/01 08:57:22;;;;;;;2.53;1.00;;;21.70;92.40;;;;;;4844588;29;20042;-71
2021/08/01 08:59:53;;;;;;;0.80;0.70;;;21.80;93.20;;;;;;4844517;29;20026;-71
2021/08/01 09:02:19;;;;;;;1.38;0.70;;;22.00;92.10;;;;;;4858493;29;20555;-71
2021/08/01 09:04:46;;;;;;;1.15;0.75;;;22.20;91.60;;;;;;4844357;29;20130;-71
2021/08/01 09:07:12;;;;;;;2.47;0.75;;;22.40;92.10;;;;;;4844398;29;20049;-71
2021/08/01 09:09:37;;;;;;;3.08;1.25;;;22.40;91.40;;;;;;4844505;29;20026;-71
2021/08/01 09:12:03;;;;;;;1.85;1.15;;;22.40;91.60;;;;;;4844108;29;20069;-71
2021/08/01 09:14:29;;;;;;;2.20;0.85;;;22.40;91.80;;;;;;4844016;29;20025;-71
2021/08/01 09:16:55;;;;;;;0.60;0.60;;;22.30;91.20;;;;;;4844338;29;20029;-71
2021/08/01 09:19:31;;;;;;;2.05;1.05;;;22.40;90.70;;;;;;4843942;29;20113;-71
2021/08/01 09:22:13;;;;;;;11.38;1.30;;;22.30;90.60;;;;;;4843835;29;20124;-72
2021/08/01 09:24:40;;;;;;;5.15;0.82;;;22.40;90.00;;;;;;4844109;29;20033;-72
2021/08/01 09:27:07;;;;;;;3.25;0.93;;;22.30;91.30;;;;;;4844009;29;20101;-68
2021/08/01 09:29:47;;;;;;;0.70;0.70;;;22.40;91.80;;;;;;4850853;29;20034;-73
2021/08/01 09:32:12;;;;;;;;;;;22.50;91.60;;;;;;4843115;29;20030;-73
2021/08/01 09:34:45;;;;;;;1.00;0.70;;;22.60;91.80;;;;;;4843487;29;19909;-73
2021/08/01 09:37:11;;;;;;;1.33;0.60;;;22.60;90.80;;;;;;4844096;29;20034;-72
2021/08/01 09:39:43;;;;;;;0.75;0.57;;;22.50;90.90;;;;;;4843964;29;20510;-72
2021/08/01 09:42:12;;;;;;;2.67;0.80;;;22.50;90.50;;;;;;4843670;29;20029;-73
2021/08/01 09:44:39;;;;;;;1.30;0.60;;;22.40;90.20;;;;;;4843494;29;20495;-73
2021/08/01 09:47:05;;;;;;;3.40;0.98;;;22.30;90.10;;;;;;4842628;29;20102;-73
2021/08/01 09:49:31;;;;;;;3.10;0.77;;;22.30;89.20;;;;;;4843437;29;20159;-72
2021/08/01 09:52:03;;;;;;;1.85;1.08;;;22.30;90.30;;;;;;4843551;29;20041;-73
2021/08/01 09:54:48;;;;;;;1.42;0.85;;;22.40;89.40;;;;;;4858179;29;20472;-73
2021/08/01 09:57:21;;;;;;;1.95;0.82;;;22.40;86.30;;;;;;4862092;29;20117;-74
2021/08/01 09:59:48;;;;;;;0.70;0.63;;;22.40;86.00;;;;;;4861890;29;20029;-72
2021/08/01 10:02:14;;;;;;;1.13;0.70;;;22.30;86.80;;;;;;4861590;29;20039;-72
2021/08/01 10:04:40;;;;;;;2.80;0.82;;;22.30;86.60;;;;;;4846690;29;20037;-72
2021/08/01 10:07:07;;;;;;;0.85;0.70;;;22.40;86.20;;;;;;4842987;29;20505;-72
2021/08/01 10:09:42;;;;;;;0.98;0.57;;;22.40;85.60;;;;;;4843307;29;20475;-72
2021/08/01 10:12:09;;;;;;;7.68;0.80;;;22.60;84.60;;;;;;4843351;29;20056;-72
2021/08/01 10:14:36;;;;;;;4.78;0.75;;;22.60;83.70;;;;;;4872127;29;20045;-72
2021/08/01 10:17:03;;;;;;;0.77;0.57;;;22.60;85.20;;;;;;4843021;29;20518;-71
2021/08/01 10:19:29;;;;;;;0.82;0.40;;;22.60;85.50;;;;;;4842845;29;20046;-72
2021/08/01 10:22:00;;;;;;;1.30;0.60;;;22.60;84.90;;;;;;4843106;29;20034;-72
2021/08/01 10:24:29;;;;;;;0.63;0.50;;;22.50;83.90;;;;;;4842830;29;20053;-72
2021/08/01 10:27:00;;;;;;;0.77;0.60;;;22.50;83.80;;;;;;4842618;29;20042;-72
2021/08/01 10:29:46;;;;;;;1.88;0.85;;;22.40;83.30;;;;;;4842729;29;20402;-73
2021/08/01 10:32:12;;;;;;;0.70;0.60;;;22.40;83.20;;;;;;4842832;29;20029;-73
2021/08/01 10:34:49;;;;;;;2.35;1.33;;;22.30;83.80;;;;;;4842523;29;20489;-74
2021/08/01 10:37:22;;;;;;;1.17;0.50;;;22.40;84.10;;;;;;4844180;29;20045;-73
2021/08/01 10:39:48;;;;;;;0.93;0.50;;;22.30;83.20;;;;;;4861014;29;20566;-73
2021/08/01 10:42:17;;;;;;;0.82;0.55;;;22.30;82.90;;;;;;4861295;29;20033;-73
2021/08/01 10:44:43;;;;;;;0.90;0.70;;;22.20;82.90;;;;;;4860982;29;20490;-73
2021/08/01 10:47:10;;;;;;;1.95;0.60;;;22.20;82.40;;;;;;4849669;29;20038;-72
2021/08/01 10:49:40;;;;;;;0.60;0.45;;;22.10;82.30;;;;;;4860680;29;20070;-73
2021/08/01 10:52:08;;;;;;;0.93;0.40;;;22.10;81.60;;;;;;4860892;29;20101;-72
2021/08/01 10:54:34;;;;;;;1.17;0.40;;;22.10;80.80;;;;;;4861083;29;20090;-72
2021/08/01 10:57:19;;;;;;;0.43;0.38;;;22.10;79.80;;;;;;4860880;29;20423;-73
2021/08/01 10:59:45;;;;;;;1.20;0.68;;;22.10;79.90;;;;;;4858284;29;20086;-72
2021/08/01 11:02:12;;;;;;;1.05;0.50;;;22.20;81.50;;;;;;4842297;29;20025;-72
2021/08/01 11:04:38;;;;;;;0.85;0.70;;;22.30;81.20;;;;;;4842344;29;20034;-72
2021/08/01 11:07:04;;;;;;;0.77;0.60;;;22.50;80.00;;;;;;4853349;29;20376;-72
2021/08/01 11:09:30;;;;;;;3.60;0.85;;;22.50;80.20;;;;;;4852537;29;20478;-78
2021/08/01 11:12:17;;;;;;;0.77;0.40;;;22.60;79.70;;;;;;4860571;29;20038;-77
2021/08/01 11:14:48;;;;;;;0.73;0.50;;;22.60;78.10;;;;;;4860519;29;20113;-79
2021/08/01 11:17:14;;;;;;;1.00;0.73;;;22.60;78.30;;;;;;4860633;29;20414;-79
2021/08/01 11:19:39;;;;;;;1.25;0.52;;;22.60;78.30;;;;;;4860588;29;20034;-78
2021/08/01 11:22:05;;;;;;;0.70;0.70;;;22.60;78.40;;;;;;4860273;29;20088;-79
2021/08/01 11:24:31;;;;;;;0.55;0.55;;;22.70;77.80;;;;;;4860343;29;20033;-79
2021/08/01 11:27:12;;;;;;;1.95;0.80;;;22.70;76.50;;;;;;4860439;29;20034;-79
2021/08/01 11:30:01;;;;;;;0.57;0.55;;;22.70;77.10;;;;;;4860480;29;20393;-79
2021/08/01 11:32:27;;;;;;;0.55;0.45;;;22.60;76.20;;;;;;4860175;29;20025;-79
2021/08/01 11:35:15;;;;;;;1.20;0.70;;;22.50;75.90;;;;;;4860574;29;20101;-79
2021/08/01 11:37:41;;;;;;;1.90;0.80;;;22.40;74.90;;;;;;4859896;29;20033;-78
2021/08/01 11:40:08;;;;;;;1.63;0.60;;;22.30;74.80;;;;;;4860029;29;20029;-79
2021/08/01 11:42:34;;;;;;;1.17;0.70;;;22.20;75.20;;;;;;4859931;29;20045;-78
2021/08/01 11:45:01;;;;;;;0.73;0.63;;;22.10;74.40;;;;;;4860140;29;20037;-78
2021/08/01 11:47:28;;;;;;;2.90;0.77;;;22.10;75.30;;;;;;4859875;29;20034;-79
2021/08/01 11:49:54;;;;;;;0.85;0.68;;;22.10;75.10;;;;;;4859904;29;20104;-79
2021/08/01 11:52:46;;;;;;;1.00;0.70;;;22.00;74.00;;;;;;4859830;29;20551;-79
2021/08/01 11:55:17;;;;;;;1.38;0.50;;;22.00;74.20;;;;;;4859852;29;20549;-79
2021/08/01 11:57:50;;;;;;;0.95;0.73;;;21.90;73.70;;;;;;4859518;29;20021;-72
2021/08/01 12:00:22;;;;;;;0.60;0.60;;;22.00;74.70;;;;;;4859884;29;20087;-76
2021/08/01 12:02:53;;;;;;;1.25;0.60;;;22.00;75.00;;;;;;4859546;29;20033;-76
2021/08/01 12:05:19;;;;;;;2.05;0.80;;;22.00;73.20;;;;;;4860081;29;20582;-76
2021/08/01 12:07:50;;;;;;;1.73;0.95;;;21.90;73.50;;;;;;4859498;29;20053;-77
2021/08/01 12:10:26;;;;;;;2.33;0.75;;;21.90;73.20;;;;;;4857978;29;20541;-77
2021/08/01 12:12:54;;;;;;;1.42;0.82;;;21.80;73.00;;;;;;4859618;29;20583;-77
2021/08/01 12:15:22;;;;;;;2.65;0.70;;;21.80;74.30;;;;;;4860038;29;20048;-77
2021/08/01 12:17:49;;;;;;;1.55;0.90;;;21.80;76.30;;;;;;4859595;29;20040;-77
2021/08/01 12:20:15;;;;;;;0.85;0.50;;;21.80;76.30;;;;;;4859856;29;20033;-78
2021/08/01 12:22:47;;;;;;;1.15;0.73;;;21.70;77.50;;;;;;4859530;29;20034;-75
2021/08/01 12:25:12;;;;;;;0.73;0.60;;;21.70;77.30;;;;;;4860027;29;20029;-76
2021/08/01 12:27:38;;;;;;;0.90;0.85;;;21.50;76.50;;;;;;4859370;29;20046;-75
2021/08/01 12:30:04;;;;;;;1.63;0.70;;;21.50;76.90;;;;;;4859875;29;20032;-75
2021/08/01 12:32:39;;;;;;;1.23;0.70;;;21.40;77.80;;;;;;4859686;29;20377;-75
2021/08/01 12:35:22;;;;;;;0.90;0.55;;;21.50;78.30;;;;;;4859870;29;20032;-75
2021/08/01 12:38:03;;;;;;;25.63;2.20;;;21.60;78.40;;;;;;4859463;29;20036;-78
2021/08/01 12:40:33;;;;;;;1.13;0.50;;;21.70;79.20;;;;;;4859701;29;20029;-75
2021/08/01 12:43:05;;;;;;;2.63;0.73;;;21.70;77.70;;;;;;4859386;29;20043;-75
2021/08/01 12:45:37;;;;;;;1.42;0.68;;;21.70;77.50;;;;;;4856534;29;20486;-76
2021/08/01 12:48:07;;;;;;;4.30;0.85;;;21.70;77.10;;;;;;4859189;29;20131;-75
2021/08/01 12:50:34;;;;;;;4.68;0.88;;;21.80;77.10;;;;;;4859639;29;20029;-76
2021/08/01 12:53:01;;;;;;;3.17;0.90;;;21.80;76.30;;;;;;4859576;29;20038;-73
2021/08/01 12:55:27;;;;;;;1.73;0.73;;;21.80;75.60;;;;;;4859381;29;20030;-73
2021/08/01 12:58:00;;;;;;;1.15;0.90;;;21.80;75.70;;;;;;4859418;29;20132;-73
2021/08/01 13:00:32;;;;;;;1.00;0.70;;;21.80;75.10;;;;;;4859447;29;20029;-72
2021/08/01 13:03:03;;;;;;;1.52;0.70;;;21.90;76.10;;;;;;4851089;29;20502;-72
2021/08/01 13:05:33;;;;;;;1.50;0.73;;;21.90;75.70;;;;;;4842718;29;20037;-74
2021/08/01 13:07:59;;;;;;;1.80;0.70;;;21.90;75.10;;;;;;4840716;29;20120;-71
2021/08/01 13:10:26;;;;;;;1.23;0.75;;;21.90;75.50;;;;;;4845361;29;20048;-72
2021/08/01 13:13:13;;;;;;;1.40;0.75;;;22.00;75.00;;;;;;4850854;29;20368;-72
2021/08/01 13:15:44;;;;;;;1.88;0.80;;;22.00;74.90;;;;;;4849785;29;20101;-72
2021/08/01 13:18:23;;;;;;;2.00;0.80;;;22.00;75.80;;;;;;4841357;29;20030;-67
2021/08/01 13:20:49;;;;;;;1.35;0.90;;;21.90;75.20;;;;;;4851549;29;20018;-67